地図

経路データ

SID SEASON NUMBER BASIN SUBBASIN NAME ISO_TIME NATURE LAT LON WMO_WIND WMO_PRES WMO_AGENCY TRACK_TYPE DIST2LAND LANDFALL IFLAG USA_AGENCY USA_ATCF_ID USA_LAT USA_LON USA_RECORD USA_STATUS USA_WIND USA_PRES USA_SSHS USA_R34_NE USA_R34_SE USA_R34_SW USA_R34_NW USA_R50_NE USA_R50_SE USA_R50_SW USA_R50_NW USA_R64_NE USA_R64_SE USA_R64_SW USA_R64_NW USA_POCI USA_ROCI USA_RMW USA_EYE TOKYO_LAT TOKYO_LON TOKYO_GRADE TOKYO_WIND TOKYO_PRES TOKYO_R50_DIR TOKYO_R50_LONG TOKYO_R50_SHORT TOKYO_R30_DIR TOKYO_R30_LONG TOKYO_R30_SHORT TOKYO_LAND CMA_LAT CMA_LON CMA_CAT CMA_WIND CMA_PRES HKO_LAT HKO_LON HKO_CAT HKO_WIND HKO_PRES NEWDELHI_LAT NEWDELHI_LON NEWDELHI_GRADE NEWDELHI_WIND NEWDELHI_PRES NEWDELHI_CI NEWDELHI_DP NEWDELHI_POCI REUNION_LAT REUNION_LON REUNION_TYPE REUNION_WIND REUNION_PRES REUNION_TNUM REUNION_CI REUNION_RMW REUNION_R34_NE REUNION_R34_SE REUNION_R34_SW REUNION_R34_NW REUNION_R50_NE REUNION_R50_SE REUNION_R50_SW REUNION_R50_NW REUNION_R64_NE REUNION_R64_SE REUNION_R64_SW REUNION_R64_NW BOM_LAT BOM_LON BOM_TYPE BOM_WIND BOM_PRES BOM_TNUM BOM_CI BOM_RMW BOM_R34_NE BOM_R34_SE BOM_R34_SW BOM_R34_NW BOM_R50_NE BOM_R50_SE BOM_R50_SW BOM_R50_NW BOM_R64_NE BOM_R64_SE BOM_R64_SW BOM_R64_NW BOM_ROCI BOM_POCI BOM_EYE BOM_POS_METHOD BOM_PRES_METHOD NADI_LAT NADI_LON NADI_CAT NADI_WIND NADI_PRES WELLINGTON_LAT WELLINGTON_LON WELLINGTON_WIND WELLINGTON_PRES DS824_LAT DS824_LON DS824_STAGE DS824_WIND DS824_PRES TD9636_LAT TD9636_LON TD9636_STAGE TD9636_WIND TD9636_PRES TD9635_LAT TD9635_LON TD9635_WIND TD9635_PRES TD9635_ROCI NEUMANN_LAT NEUMANN_LON NEUMANN_CLASS NEUMANN_WIND NEUMANN_PRES MLC_LAT MLC_LON MLC_CLASS MLC_WIND MLC_PRES USA_GUST BOM_GUST BOM_GUST_PER REUNION_GUST REUNION_GUST_PER USA_SEAHGT USA_SEARAD_NE USA_SEARAD_SE USA_SEARAD_SW USA_SEARAD_NW STORM_SPEED STORM_DIR
1926234N18125 1926 35 WP MM NOT_NAMED 1926-08-21 22:00:00 NR 18.1000 125.200 main 307 295 __________O___ -1 18.1000 125.200 7 10 335
1926234N18125 1926 35 WP MM NOT_NAMED 1926-08-22 00:00:00 NR 18.3932 125.056 main 295 275 __________P___ -1 18.3932 125.056 7 10 336
1926234N18125 1926 35 WP MM NOT_NAMED 1926-08-22 03:00:00 NR 18.8293 124.855 main 277 264 __________P___ -1 18.8293 124.855 7 9 339
1926234N18125 1926 35 WP MM NOT_NAMED 1926-08-22 06:00:00 NR 19.2558 124.698 main 271 266 __________P___ -1 19.2558 124.698 7 9 345
1926234N18125 1926 35 WP MM NOT_NAMED 1926-08-22 09:00:00 NR 19.6672 124.609 main 282 282 __________P___ -1 19.6672 124.609 7 8 351
1926234N18125 1926 35 WP MM NOT_NAMED 1926-08-22 10:00:00 NR 19.8000 124.600 main 287 287 __________O___ -1 19.8000 124.600 7 8 1
1926234N18125 1926 35 WP MM NOT_NAMED 1926-08-22 12:00:00 NR 20.0588 124.614 main 307 307 __________P___ -1 20.0588 124.614 7 8 8
1926234N18125 1926 35 WP MM NOT_NAMED 1926-08-22 15:00:00 NR 20.4343 124.692 main 336 344 __________P___ -1 20.4343 124.692 7 8 13
1926234N18125 1926 35 WP MM NOT_NAMED 1926-08-22 18:00:00 NR 20.8030 124.797 main 375 375 __________P___ -1 20.8030 124.797 7 8 14
1926234N18125 1926 35 WP MM NOT_NAMED 1926-08-22 21:00:00 NR 21.1741 124.884 main 414 412 __________P___ -1 21.1741 124.884 7 8 11
1926234N18125 1926 35 WP MM NOT_NAMED 1926-08-22 22:00:00 NR 21.3000 124.900 main 412 396 __________O___ -1 21.3000 124.900 3 8 0
1926234N18125 1926 35 WP MM NOT_NAMED 1926-08-23 00:00:00 NR 21.5582 124.900 main 396 379 __________P___ -1 21.5582 124.900 3 8 358
1926234N18125 1926 35 WP MM NOT_NAMED 1926-08-23 03:00:00 NR 21.9519 124.862 main 379 357 __________P___ -1 21.9519 124.862 3 8 352
1926234N18125 1926 35 WP MM NOT_NAMED 1926-08-23 06:00:00 NR 22.3532 124.780 main 357 339 __________P___ -1 22.3532 124.780 3 8 347
1926234N18125 1926 35 WP MM NOT_NAMED 1926-08-23 09:00:00 NR 22.7620 124.652 main 339 327 __________P___ -1 22.7620 124.652 3 9 343
1926234N18125 1926 35 WP MM NOT_NAMED 1926-08-23 10:00:00 NR 22.9000 124.600 main 327 301 __________O___ -1 22.9000 124.600 4 9 342
1926234N18125 1926 35 WP MM NOT_NAMED 1926-08-23 12:00:00 NR 23.1747 124.513 main 301 263 __________P___ -1 23.1747 124.513 4 9 341
1926234N18125 1926 35 WP MM NOT_NAMED 1926-08-23 15:00:00 NR 23.5930 124.344 main 263 229 __________P___ -1 23.5930 124.344 4 9 337
1926234N18125 1926 35 WP MM NOT_NAMED 1926-08-23 18:00:00 NR 24.0191 124.118 main 229 190 __________P___ -1 24.0191 124.118 4 10 331
1926234N18125 1926 35 WP MM NOT_NAMED 1926-08-23 21:00:00 NR 24.4534 123.819 main 190 177 __________P___ -1 24.4534 123.819 4 10 327
1926234N18125 1926 35 WP MM NOT_NAMED 1926-08-23 22:00:00 NR 24.6000 123.700 main 177 141 __________O___ -1 24.6000 123.700 4 11 323
1926234N18125 1926 35 WP MM NOT_NAMED 1926-08-24 00:00:00 NR 24.8994 123.448 main 141 106 __________P___ -1 24.8994 123.448 4 12 320
1926234N18125 1926 35 WP MM NOT_NAMED 1926-08-24 03:00:00 NR 25.3548 123.000 main 110 97 __________P___ -1 25.3548 123.000 4 13 316
1926234N18125 1926 35 WP MM NOT_NAMED 1926-08-24 06:00:00 NR 25.8098 122.481 main 102 102 __________P___ -1 25.8098 122.481 4 13 312
1926234N18125 1926 35 WP MM NOT_NAMED 1926-08-24 09:00:00 NR 26.2552 121.903 main 126 124 __________P___ -1 26.2552 121.903 4 14 310
1926234N18125 1926 35 WP MM NOT_NAMED 1926-08-24 10:00:00 NR 26.4000 121.700 main 134 96 __________O___ -1 26.4000 121.700 4 14 307
1926234N18125 1926 35 WP MM NOT_NAMED 1926-08-24 12:00:00 NR 26.6829 121.280 main 96 14 __________P___ -1 26.6829 121.280 4 14 306
1926234N18125 1926 35 WP MM NOT_NAMED 1926-08-24 15:00:00 NR 27.0922 120.622 main 14 0 __________P___ -1 27.0922 120.622 4 14 304
1926234N18125 1926 35 WP MM NOT_NAMED 1926-08-24 18:00:00 NR 27.4874 119.937 main 0 0 __________P___ -1 27.4874 119.937 4 15 302
1926234N18125 1926 35 WP MM NOT_NAMED 1926-08-24 21:00:00 NR 27.8729 119.236 main 0 0 __________P___ -1 27.8729 119.236 4 15 302
1926234N18125 1926 35 WP MM NOT_NAMED 1926-08-24 22:00:00 NR 28.0000 119.000 main 0 __________O___ -1 28.0000 119.000 7 15 301

デジタル台風データ・検索

IBTrACS Databaseについて

本データベースは、米国NOAAが公開する1842年以降の世界の熱帯低気圧のベストトラックデータアーカイブInternational Best Track Archive for Climate Stewardship (IBTrACS)を、ウェブで閲覧しやすい形式に変換したものです。

最終更新日:2021-11-26